Time;durP1;ratioP1;P1;durP2;ratioP2;P2;SDS_P1;SDS_P2;PMS_P1;PMS_P2;Temp;Humidity;BMP_temperature;BMP_pressure;BME280_temperature;BME280_humidity;BME280_pressure;Samples;Min_cycle;Max_cycle;Signal;HPM_P1;HPM_P2
2024/03/28 00:00:57;;;;;;;8.65;5.75;;;;;;;;;;6180726;23;20005;-74
2024/03/28 00:03:22;;;;;;;6.72;5.50;;;;;;;;;;6174540;23;20025;-73
2024/03/28 00:05:55;;;;;;;9.27;6.10;;;;;;;;;;6176762;23;20595;-73
2024/03/28 00:08:20;;;;;;;8.32;5.65;;;;;;;;;;6174791;23;20024;-74
2024/03/28 00:10:47;;;;;;;8.75;5.82;;;;;;;;;;6169539;23;20025;-73
2024/03/28 00:13:12;;;;;;;7.53;5.50;;;;;;;;;;6180624;23;20032;-73
2024/03/28 00:15:37;;;;;;;7.88;5.38;;;;;;;;;;6173434;23;20024;-74
2024/03/28 00:18:05;;;;;;;9.75;5.47;;;;;;;;;;6180691;23;20099;-74
2024/03/28 00:20:30;;;;;;;7.35;4.70;;;;;;;;;;6153187;23;20031;-73
2024/03/28 00:22:56;;;;;;;7.68;5.30;;;;;;;;;;6167852;23;20025;-72
2024/03/28 00:25:21;;;;;;;7.70;5.10;;;;;;;;;;6180758;23;20119;-74
2024/03/28 00:27:46;;;;;;;7.97;5.30;;;;;;;;;;6172781;23;20021;-73
2024/03/28 00:30:12;;;;;;;6.63;5.10;;;;;;;;;;6181290;23;20016;-73
2024/03/28 00:32:37;;;;;;;9.50;5.85;;;;;;;;;;6174477;23;20027;-73
2024/03/28 00:35:03;;;;;;;7.38;5.82;;;;;;;;;;6150137;23;20021;-73
2024/03/28 00:37:29;;;;;;;8.98;5.07;;;;;;;;;;6175487;23;20685;-73
2024/03/28 00:39:54;;;;;;;9.40;5.47;;;;;;;;;;6171155;23;20030;-72
2024/03/28 00:42:19;;;;;;;8.30;5.70;;;;;;;;;;6180286;23;20031;-72
2024/03/28 00:44:45;;;;;;;9.13;6.75;;;;;;;;;;6172629;23;20040;-72
2024/03/28 00:47:10;;;;;;;7.22;5.45;;;;;;;;;;6180459;23;20024;-73
2024/03/28 00:49:35;;;;;;;8.30;6.18;;;;;;;;;;6176351;23;20123;-73
2024/03/28 00:52:01;;;;;;;8.32;5.72;;;;;;;;;;6168514;23;20033;-72
2024/03/28 00:54:26;;;;;;;11.65;6.45;;;;;;;;;;6180295;23;20024;-73
2024/03/28 00:56:52;;;;;;;8.25;6.40;;;;;;;;;;6171932;23;20103;-72
2024/03/28 00:59:17;;;;;;;9.60;6.65;;;;;;;;;;6180361;23;20423;-73
2024/03/28 01:01:42;;;;;;;9.27;6.88;;;;;;;;;;6180306;23;20016;-72
2024/03/28 01:04:08;;;;;;;9.30;7.03;;;;;;;;;;6172913;23;20078;-73
2024/03/28 01:06:35;;;;;;;14.00;6.93;;;;;;;;;;6154411;23;20017;-73
2024/03/28 01:09:01;;;;;;;9.90;7.38;;;;;;;;;;6173684;23;20499;-73
2024/03/28 01:11:26;;;;;;;9.45;6.55;;;;;;;;;;6180724;23;20020;-73
2024/03/28 01:13:51;;;;;;;8.88;6.13;;;;;;;;;;6174942;23;20096;-73
2024/03/28 01:16:17;;;;;;;9.02;6.72;;;;;;;;;;6152627;23;20027;-73
2024/03/28 01:18:42;;;;;;;9.77;6.28;;;;;;;;;;6176836;23;20072;-73
2024/03/28 01:21:08;;;;;;;8.65;6.63;;;;;;;;;;6175939;23;20048;-73
2024/03/28 01:23:33;;;;;;;7.90;5.97;;;;;;;;;;6182044;23;20043;-73
2024/03/28 01:26:02;;;;;;;8.93;6.63;;;;;;;;;;6173823;23;20844;-73
2024/03/28 01:28:28;;;;;;;9.60;6.72;;;;;;;;;;6181313;23;20028;-73
2024/03/28 01:31:02;;;;;;;8.95;6.50;;;;;;;;;;6176831;23;20035;-73
2024/03/28 01:33:28;;;;;;;8.93;6.43;;;;;;;;;;6174879;23;20039;-73
2024/03/28 01:35:53;;;;;;;10.23;6.60;;;;;;;;;;6180504;23;20091;-73
2024/03/28 01:38:19;;;;;;;9.90;6.30;;;;;;;;;;6148601;23;20088;-72
2024/03/28 01:40:44;;;;;;;8.38;6.70;;;;;;;;;;6180230;23;20441;-73
2024/03/28 01:43:09;;;;;;;8.35;6.43;;;;;;;;;;6174777;23;20031;-73
2024/03/28 01:45:35;;;;;;;7.97;6.13;;;;;;;;;;6150906;23;20021;-73
2024/03/28 01:48:01;;;;;;;12.75;6.53;;;;;;;;;;6179810;23;20107;-73
2024/03/28 01:50:27;;;;;;;9.45;6.28;;;;;;;;;;6173584;23;20101;-73
2024/03/28 01:52:53;;;;;;;8.90;6.03;;;;;;;;;;6181163;23;20029;-73
2024/03/28 01:55:19;;;;;;;7.82;6.47;;;;;;;;;;6174850;23;20024;-73
2024/03/28 01:57:46;;;;;;;8.60;6.10;;;;;;;;;;6151928;23;20640;-73
2024/03/28 02:00:12;;;;;;;9.35;6.50;;;;;;;;;;6177154;23;20387;-73
2024/03/28 02:02:39;;;;;;;8.48;5.60;;;;;;;;;;6172515;23;20025;-72
2024/03/28 02:05:04;;;;;;;8.73;5.85;;;;;;;;;;6181138;23;20028;-73
2024/03/28 02:07:30;;;;;;;7.03;5.20;;;;;;;;;;6173947;23;20079;-73
2024/03/28 02:09:55;;;;;;;6.97;5.40;;;;;;;;;;6179170;23;20024;-73
2024/03/28 02:12:20;;;;;;;7.68;5.38;;;;;;;;;;6170755;23;20102;-73
2024/03/28 02:14:46;;;;;;;6.72;5.38;;;;;;;;;;6175565;23;20028;-73
2024/03/28 02:17:12;;;;;;;7.18;5.13;;;;;;;;;;6180852;23;20669;-73
2024/03/28 02:19:38;;;;;;;7.20;5.03;;;;;;;;;;6173300;23;20564;-72
2024/03/28 02:22:03;;;;;;;7.53;4.97;;;;;;;;;;6181244;23;20111;-73
2024/03/28 02:24:29;;;;;;;7.15;5.00;;;;;;;;;;6171272;23;20035;-73
2024/03/28 02:26:54;;;;;;;8.45;5.15;;;;;;;;;;6175285;23;20676;-73
2024/03/28 02:29:20;;;;;;;6.95;5.35;;;;;;;;;;6176906;23;20063;-74
2024/03/28 02:31:46;;;;;;;8.10;5.13;;;;;;;;;;6173808;23;20120;-72
2024/03/28 02:34:11;;;;;;;7.10;4.70;;;;;;;;;;6181396;23;20028;-73
2024/03/28 02:36:36;;;;;;;7.28;5.10;;;;;;;;;;6172704;23;20028;-72
2024/03/28 02:39:02;;;;;;;6.22;4.70;;;;;;;;;;6180457;23;20079;-73
2024/03/28 02:41:27;;;;;;;8.18;5.45;;;;;;;;;;6170042;23;20024;-72
2024/03/28 02:43:53;;;;;;;6.78;5.40;;;;;;;;;;6177742;23;20092;-72
2024/03/28 02:46:19;;;;;;;7.32;5.85;;;;;;;;;;6181005;23;20142;-73
2024/03/28 02:48:44;;;;;;;7.47;5.22;;;;;;;;;;6174256;23;20099;-73
2024/03/28 02:51:09;;;;;;;8.30;5.55;;;;;;;;;;6156133;23;20020;-73
2024/03/28 02:53:35;;;;;;;8.85;5.53;;;;;;;;;;6169951;23;20025;-72
2024/03/28 02:56:01;;;;;;;6.57;5.05;;;;;;;;;;6175485;23;20375;-73
2024/03/28 02:58:26;;;;;;;8.77;5.50;;;;;;;;;;6180494;23;20676;-72
2024/03/28 03:00:52;;;;;;;7.70;4.68;;;;;;;;;;6174240;23;20092;-73
2024/03/28 03:03:17;;;;;;;8.25;4.57;;;;;;;;;;6180460;23;20354;-73
2024/03/28 03:05:43;;;;;;;6.13;4.30;;;;;;;;;;6149260;23;20032;-73
2024/03/28 03:08:09;;;;;;;5.88;4.32;;;;;;;;;;6150832;23;20020;-73
2024/03/28 03:10:34;;;;;;;5.40;4.00;;;;;;;;;;6176971;23;20498;-73
2024/03/28 03:12:59;;;;;;;5.97;3.88;;;;;;;;;;6147367;23;20321;-73
2024/03/28 03:15:25;;;;;;;5.43;4.13;;;;;;;;;;6180961;23;20086;-73
2024/03/28 03:17:50;;;;;;;6.13;3.92;;;;;;;;;;6148195;23;20091;-73
2024/03/28 03:20:16;;;;;;;6.85;3.97;;;;;;;;;;6180233;23;20099;-73
2024/03/28 03:22:48;;;;;;;7.13;4.47;;;;;;;;;;6169931;23;20020;-73
2024/03/28 03:25:28;;;;;;;7.30;5.28;;;;;;;;;;6153147;23;20495;-74
2024/03/28 03:36:06;;;;;;;8.02;5.60;;;;;;;;;;6170268;23;20025;-73
2024/03/28 03:38:32;;;;;;;6.70;5.40;;;;;;;;;;6178478;23;20106;-73
2024/03/28 03:40:59;;;;;;;7.93;5.15;;;;;;;;;;6175031;23;20028;-73
2024/03/28 03:43:25;;;;;;;7.65;4.47;;;;;;;;;;6182214;23;20017;-73
2024/03/28 03:45:50;;;;;;;6.90;4.43;;;;;;;;;;6178224;23;20103;-72
2024/03/28 03:48:16;;;;;;;6.00;4.38;;;;;;;;;;6180252;23;20033;-73
2024/03/28 03:50:41;;;;;;;5.32;3.78;;;;;;;;;;6176546;23;20036;-73
2024/03/28 03:53:07;;;;;;;5.57;3.85;;;;;;;;;;6145291;23;20032;-73
2024/03/28 03:55:32;;;;;;;5.70;3.42;;;;;;;;;;6181907;23;20028;-73
2024/03/28 03:57:57;;;;;;;4.32;3.40;;;;;;;;;;6175235;23;20027;-73
2024/03/28 04:00:23;;;;;;;7.75;4.13;;;;;;;;;;6156539;23;20406;-73
2024/03/28 04:02:48;;;;;;;7.00;3.70;;;;;;;;;;6181823;23;20127;-73
2024/03/28 04:05:14;;;;;;;5.13;3.90;;;;;;;;;;6171103;23;20020;-73
2024/03/28 04:07:39;;;;;;;5.18;3.58;;;;;;;;;;6177293;23;20027;-73
2024/03/28 04:10:05;;;;;;;6.78;3.67;;;;;;;;;;6173966;23;20096;-73
2024/03/28 04:12:30;;;;;;;6.65;3.58;;;;;;;;;;6181981;23;20020;-73
2024/03/28 04:14:56;;;;;;;5.28;3.55;;;;;;;;;;6181256;23;20092;-73
2024/03/28 04:17:21;;;;;;;5.30;3.72;;;;;;;;;;6175347;23;20514;-74
2024/03/28 04:19:47;;;;;;;5.13;3.50;;;;;;;;;;6174994;23;20021;-72
2024/03/28 04:22:12;;;;;;;5.18;3.80;;;;;;;;;;6170494;23;20020;-73
2024/03/28 04:24:38;;;;;;;6.90;4.22;;;;;;;;;;6180897;23;20042;-73
2024/03/28 04:27:04;;;;;;;6.25;4.35;;;;;;;;;;6175337;23;20568;-73
2024/03/28 04:29:30;;;;;;;7.97;4.45;;;;;;;;;;6181053;23;20043;-73
2024/03/28 04:31:56;;;;;;;9.15;4.53;;;;;;;;;;6181063;23;20025;-73
2024/03/28 04:34:23;;;;;;;7.97;4.50;;;;;;;;;;6170752;23;20370;-73
2024/03/28 04:36:49;;;;;;;9.02;5.20;;;;;;;;;;6175950;23;20025;-73
2024/03/28 04:39:15;;;;;;;7.43;4.95;;;;;;;;;;6174567;23;20036;-73
2024/03/28 04:41:40;;;;;;;10.48;5.07;;;;;;;;;;6181226;23;20025;-70
2024/03/28 04:44:06;;;;;;;7.22;4.85;;;;;;;;;;6179827;23;20039;-71
2024/03/28 04:46:32;;;;;;;7.93;4.88;;;;;;;;;;6175565;23;20442;-70
2024/03/28 04:48:57;;;;;;;7.35;5.18;;;;;;;;;;6175377;23;20664;-69
2024/03/28 04:51:22;;;;;;;8.23;4.90;;;;;;;;;;6169800;23;20086;-69
2024/03/28 04:53:48;;;;;;;8.25;5.53;;;;;;;;;;6180403;23;20024;-70
2024/03/28 04:56:13;;;;;;;10.20;5.65;;;;;;;;;;6174934;23;20021;-70
2024/03/28 04:58:39;;;;;;;7.70;5.20;;;;;;;;;;6179743;23;20017;-69
2024/03/28 05:01:04;;;;;;;7.65;5.75;;;;;;;;;;6181691;23;20020;-69
2024/03/28 05:03:31;;;;;;;7.57;5.20;;;;;;;;;;6169318;23;20078;-70
2024/03/28 05:05:56;;;;;;;7.20;5.10;;;;;;;;;;6176860;23;20024;-71
2024/03/28 05:08:21;;;;;;;9.02;5.63;;;;;;;;;;6174827;23;20070;-70
2024/03/28 05:10:47;;;;;;;9.07;6.28;;;;;;;;;;6180984;23;20075;-70
2024/03/28 05:13:13;;;;;;;7.95;5.40;;;;;;;;;;6182342;23;20066;-69
2024/03/28 05:15:41;;;;;;;10.07;5.78;;;;;;;;;;6175589;23;20029;-70
2024/03/28 05:18:07;;;;;;;8.02;5.75;;;;;;;;;;6174310;23;20087;-70
2024/03/28 05:20:32;;;;;;;8.90;5.47;;;;;;;;;;6172511;23;20021;-70
2024/03/28 05:22:58;;;;;;;8.57;5.47;;;;;;;;;;6181401;23;20023;-70
2024/03/28 05:25:23;;;;;;;7.13;5.18;;;;;;;;;;6176077;23;20021;-70
2024/03/28 05:27:48;;;;;;;8.23;5.85;;;;;;;;;;6180251;23;20032;-71
2024/03/28 05:30:14;;;;;;;11.05;6.10;;;;;;;;;;6182004;23;20494;-69
2024/03/28 05:32:40;;;;;;;7.50;5.13;;;;;;;;;;6167964;23;20079;-70
2024/03/28 05:35:05;;;;;;;7.07;4.75;;;;;;;;;;6179025;23;20035;-70
2024/03/28 05:37:30;;;;;;;8.07;5.55;;;;;;;;;;6172927;23;20024;-70
2024/03/28 05:39:56;;;;;;;7.97;4.63;;;;;;;;;;6155352;23;20078;-69
2024/03/28 05:42:21;;;;;;;8.05;5.38;;;;;;;;;;6181219;23;20359;-70
2024/03/28 05:44:47;;;;;;;6.53;4.60;;;;;;;;;;6171148;23;20021;-70
2024/03/28 05:47:12;;;;;;;9.63;4.75;;;;;;;;;;6149376;23;20016;-69
2024/03/28 05:49:38;;;;;;;6.88;4.47;;;;;;;;;;6174510;23;20024;-69
2024/03/28 05:52:03;;;;;;;9.98;4.85;;;;;;;;;;6180923;23;20025;-69
2024/03/28 05:54:29;;;;;;;8.40;4.63;;;;;;;;;;6175051;23;20021;-70
2024/03/28 05:56:54;;;;;;;8.55;4.90;;;;;;;;;;6179125;23;20016;-70
2024/03/28 05:59:19;;;;;;;8.93;5.25;;;;;;;;;;6177509;23;20020;-70
2024/03/28 06:01:45;;;;;;;6.97;4.45;;;;;;;;;;6169284;23;20861;-70
2024/03/28 06:04:10;;;;;;;7.60;4.80;;;;;;;;;;6181322;23;20020;-70
2024/03/28 06:06:36;;;;;;;8.75;5.18;;;;;;;;;;6173929;23;20999;-70
2024/03/28 06:09:02;;;;;;;7.68;4.60;;;;;;;;;;6179864;23;20032;-70
2024/03/28 06:11:27;;;;;;;6.97;4.63;;;;;;;;;;6180189;23;20028;-75
2024/03/28 06:13:54;;;;;;;7.88;4.65;;;;;;;;;;6169311;23;20029;-68
2024/03/28 06:16:19;;;;;;;8.25;4.55;;;;;;;;;;6175550;23;20028;-70
2024/03/28 06:18:45;;;;;;;7.18;4.68;;;;;;;;;;6172339;23;20028;-71
2024/03/28 06:21:10;;;;;;;6.75;4.50;;;;;;;;;;6180046;23;20020;-70
2024/03/28 06:23:36;;;;;;;7.28;5.25;;;;;;;;;;6175807;23;20112;-70
2024/03/28 06:26:01;;;;;;;6.95;4.80;;;;;;;;;;6176508;23;20021;-70
2024/03/28 06:28:27;;;;;;;7.07;4.75;;;;;;;;;;6176159;23;20029;-71
2024/03/28 06:30:56;;;;;;;7.88;4.90;;;;;;;;;;6168275;23;20028;-69
2024/03/28 06:33:22;;;;;;;10.18;5.97;;;;;;;;;;6180200;23;20040;-69
2024/03/28 06:35:48;;;;;;;7.07;5.05;;;;;;;;;;6172003;23;20637;-69
2024/03/28 06:38:13;;;;;;;7.60;4.88;;;;;;;;;;6179538;23;20051;-70
2024/03/28 06:40:39;;;;;;;6.82;3.90;;;;;;;;;;6179938;23;20020;-70
2024/03/28 06:43:05;;;;;;;8.45;4.22;;;;;;;;;;6168975;23;20082;-71
2024/03/28 06:45:31;;;;;;;6.63;4.47;;;;;;;;;;6175119;23;20537;-71
2024/03/28 06:47:56;;;;;;;7.35;4.05;;;;;;;;;;6172185;23;20107;-72
2024/03/28 06:50:21;;;;;;;8.15;4.68;;;;;;;;;;6180442;23;20490;-71
2024/03/28 06:52:48;;;;;;;6.65;4.30;;;;;;;;;;6174587;23;20027;-72
2024/03/28 06:55:13;;;;;;;6.43;4.28;;;;;;;;;;6179100;23;20067;-71
2024/03/28 06:57:39;;;;;;;5.07;3.45;;;;;;;;;;6174470;23;20020;-71
2024/03/28 07:00:06;;;;;;;6.10;4.53;;;;;;;;;;6171330;23;20116;-74
2024/03/28 07:02:32;;;;;;;5.90;3.70;;;;;;;;;;6182832;23;20024;-75
2024/03/28 07:04:58;;;;;;;6.95;4.05;;;;;;;;;;6174740;23;20024;-74
2024/03/28 07:07:23;;;;;;;5.55;3.67;;;;;;;;;;6183118;23;20513;-74
2024/03/28 07:09:49;;;;;;;4.40;3.47;;;;;;;;;;6181469;23;20028;-74
2024/03/28 07:12:14;;;;;;;5.10;3.20;;;;;;;;;;6168606;23;20099;-74
2024/03/28 07:14:40;;;;;;;6.57;3.30;;;;;;;;;;6179812;23;20025;-74
2024/03/28 07:17:05;;;;;;;5.97;3.47;;;;;;;;;;6176297;23;20024;-74
2024/03/28 07:19:31;;;;;;;6.15;3.63;;;;;;;;;;6182165;23;20021;-74
2024/03/28 07:21:56;;;;;;;5.72;3.70;;;;;;;;;;6175687;23;20106;-73
2024/03/28 07:24:22;;;;;;;6.45;4.38;;;;;;;;;;6179121;23;20138;-75
2024/03/28 07:26:47;;;;;;;5.97;3.58;;;;;;;;;;6176690;23;20095;-74
2024/03/28 07:29:13;;;;;;;5.22;3.47;;;;;;;;;;6174124;23;20087;-74
2024/03/28 07:31:39;;;;;;;5.45;2.95;;;;;;;;;;6181634;23;20016;-74
2024/03/28 07:34:04;;;;;;;5.57;3.28;;;;;;;;;;6175460;23;20698;-74
2024/03/28 07:36:30;;;;;;;4.55;3.40;;;;;;;;;;6181682;23;20020;-78
2024/03/28 07:38:56;;;;;;;5.35;3.47;;;;;;;;;;6153896;23;20028;-73
2024/03/28 07:41:21;;;;;;;5.13;3.20;;;;;;;;;;6170120;23;20632;-74
2024/03/28 07:43:47;;;;;;;5.97;3.33;;;;;;;;;;6179606;23;20064;-73
2024/03/28 07:46:12;;;;;;;4.07;2.92;;;;;;;;;;6174787;23;20292;-74
2024/03/28 07:48:38;;;;;;;4.78;2.75;;;;;;;;;;6182138;23;20024;-72
2024/03/28 07:51:04;;;;;;;4.22;3.00;;;;;;;;;;6176101;23;20127;-74
2024/03/28 07:53:30;;;;;;;4.97;3.92;;;;;;;;;;6152371;23;20629;-73
2024/03/28 07:55:56;;;;;;;4.50;2.83;;;;;;;;;;6180208;23;20075;-73
2024/03/28 07:58:21;;;;;;;3.90;2.97;;;;;;;;;;6175045;23;20340;-73
2024/03/28 08:00:47;;;;;;;4.25;2.83;;;;;;;;;;6181982;23;20025;-73
2024/03/28 08:03:18;;;;;;;5.07;2.90;;;;;;;;;;6175382;23;20031;-73
2024/03/28 08:05:44;;;;;;;6.55;3.05;;;;;;;;;;6179202;23;20317;-72
2024/03/28 08:08:09;;;;;;;4.82;2.95;;;;;;;;;;6176120;23;20024;-72
2024/03/28 08:10:35;;;;;;;4.60;2.80;;;;;;;;;;6173142;23;20483;-69
2024/03/28 08:13:01;;;;;;;3.60;2.30;;;;;;;;;;6179385;23;20016;-72
2024/03/28 08:15:26;;;;;;;3.85;2.42;;;;;;;;;;6174164;23;20035;-71
2024/03/28 08:17:52;;;;;;;5.40;2.47;;;;;;;;;;6180943;23;20092;-70
2024/03/28 08:20:18;;;;;;;3.85;2.30;;;;;;;;;;6169802;23;20017;-70
2024/03/28 08:22:43;;;;;;;2.33;1.90;;;;;;;;;;6176072;23;20028;-71
2024/03/28 08:25:10;;;;;;;3.15;2.25;;;;;;;;;;6180177;23;20017;-70
2024/03/28 08:27:36;;;;;;;3.78;2.33;;;;;;;;;;6174290;23;20032;-70
2024/03/28 08:30:02;;;;;;;2.90;2.22;;;;;;;;;;6180304;23;20021;-71
2024/03/28 08:32:27;;;;;;;6.32;2.50;;;;;;;;;;6174441;23;20641;-71
2024/03/28 08:34:53;;;;;;;3.90;2.50;;;;;;;;;;6175624;23;20028;-70
2024/03/28 08:37:19;;;;;;;4.30;2.50;;;;;;;;;;6154064;23;20024;-71
2024/03/28 08:39:44;;;;;;;2.92;2.03;;;;;;;;;;6173707;23;20024;-72
2024/03/28 08:42:10;;;;;;;5.22;2.00;;;;;;;;;;6155321;23;20028;-71
2024/03/28 08:44:37;;;;;;;3.65;2.10;;;;;;;;;;6173593;23;20483;-72
2024/03/28 08:47:03;;;;;;;6.15;2.85;;;;;;;;;;6177625;23;20028;-70
2024/03/28 08:49:28;;;;;;;4.72;2.40;;;;;;;;;;6170149;23;20110;-70
2024/03/28 08:51:54;;;;;;;3.80;2.10;;;;;;;;;;6179478;23;20029;-70
2024/03/28 08:54:22;;;;;;;3.75;1.77;;;;;;;;;;6180337;23;20024;-69
2024/03/28 08:56:48;;;;;;;2.40;1.77;;;;;;;;;;6172344;23;20081;-69
2024/03/28 08:59:14;;;;;;;3.47;1.88;;;;;;;;;;6180014;23;20021;-69
2024/03/28 09:01:40;;;;;;;2.40;2.05;;;;;;;;;;6168289;23;20028;-70
2024/03/28 09:04:07;;;;;;;3.08;1.98;;;;;;;;;;6176263;23;20025;-69
2024/03/28 09:06:33;;;;;;;2.92;2.38;;;;;;;;;;6179960;23;20016;-70
2024/03/28 09:09:00;;;;;;;3.25;2.10;;;;;;;;;;6172422;23;20490;-69
2024/03/28 09:11:28;;;;;;;2.97;1.90;;;;;;;;;;6179874;23;20435;-68
2024/03/28 09:13:54;;;;;;;3.97;2.25;;;;;;;;;;6172238;23;20020;-70
2024/03/28 09:16:19;;;;;;;3.50;2.05;;;;;;;;;;6174132;23;20558;-69
2024/03/28 09:18:45;;;;;;;2.75;1.80;;;;;;;;;;6171015;23;20020;-69
2024/03/28 09:21:11;;;;;;;3.08;1.95;;;;;;;;;;6180467;23;20078;-73
2024/03/28 09:23:38;;;;;;;6.28;2.05;;;;;;;;;;6181931;23;20025;-72
2024/03/28 09:26:03;;;;;;;2.90;1.77;;;;;;;;;;6174537;23;20486;-72
2024/03/28 09:28:30;;;;;;;3.92;1.98;;;;;;;;;;6181170;23;20024;-72
2024/03/28 09:30:55;;;;;;;4.60;2.15;;;;;;;;;;6174741;23;20024;-73
2024/03/28 09:33:21;;;;;;;3.80;1.90;;;;;;;;;;6155987;23;20536;-72
2024/03/28 09:35:46;;;;;;;3.20;1.83;;;;;;;;;;6180313;23;20107;-73
2024/03/28 09:38:12;;;;;;;2.83;2.13;;;;;;;;;;6175425;23;20033;-72
2024/03/28 09:40:51;;;;;;;3.65;2.28;;;;;;;;;;6176062;23;20025;-73
2024/03/28 09:43:18;;;;;;;3.67;2.13;;;;;;;;;;6170479;23;20020;-72
2024/03/28 09:45:44;;;;;;;2.65;2.03;;;;;;;;;;6179012;23;20478;-73
2024/03/28 09:48:11;;;;;;;2.65;2.00;;;;;;;;;;6174814;23;20021;-72
2024/03/28 09:50:39;;;;;;;2.95;2.22;;;;;;;;;;6180518;23;20024;-72
2024/03/28 09:53:05;;;;;;;3.10;2.40;;;;;;;;;;6179744;23;20016;-72
2024/03/28 09:55:31;;;;;;;4.85;2.22;;;;;;;;;;6166865;23;20106;-72
2024/03/28 09:58:01;;;;;;;2.92;2.17;;;;;;;;;;6179379;23;20825;-72
2024/03/28 10:00:28;;;;;;;2.10;1.90;;;;;;;;;;6149091;23;20348;-73
2024/03/28 10:02:57;;;;;;;5.28;2.78;;;;;;;;;;6180437;23;20021;-72
2024/03/28 10:05:24;;;;;;;4.15;2.40;;;;;;;;;;6174996;23;20025;-72
2024/03/28 10:07:50;;;;;;;3.92;2.00;;;;;;;;;;6175408;23;20034;-72
2024/03/28 10:10:16;;;;;;;4.70;2.40;;;;;;;;;;6176870;23;20060;-72
2024/03/28 10:12:51;;;;;;;4.60;2.50;;;;;;;;;;6173672;23;20084;-72
2024/03/28 10:15:17;;;;;;;6.10;2.10;;;;;;;;;;6180822;23;20025;-72
2024/03/28 10:17:42;;;;;;;3.58;2.10;;;;;;;;;;6173782;23;20139;-72
2024/03/28 10:20:10;;;;;;;3.53;2.22;;;;;;;;;;6179338;23;20395;-72
2024/03/28 10:22:42;;;;;;;3.42;2.25;;;;;;;;;;6176006;23;20021;-73
2024/03/28 10:25:17;;;;;;;2.70;1.98;;;;;;;;;;6169712;23;20052;-72
2024/03/28 10:27:43;;;;;;;4.38;2.47;;;;;;;;;;6180141;23;20136;-72
2024/03/28 10:30:11;;;;;;;2.70;1.98;;;;;;;;;;6175172;23;20099;-69
2024/03/28 10:32:37;;;;;;;2.90;2.03;;;;;;;;;;6156447;23;20679;-70
2024/03/28 10:35:03;;;;;;;4.03;2.20;;;;;;;;;;6175555;23;20039;-69
2024/03/28 10:37:29;;;;;;;3.20;2.20;;;;;;;;;;6176515;23;20024;-69
2024/03/28 10:39:54;;;;;;;3.20;2.08;;;;;;;;;;6176908;23;20025;-69
2024/03/28 10:42:20;;;;;;;2.05;1.40;;;;;;;;;;6173925;23;20020;-69
2024/03/28 10:44:46;;;;;;;3.75;1.60;;;;;;;;;;6180820;23;20631;-69
2024/03/28 10:47:12;;;;;;;4.55;1.55;;;;;;;;;;6175065;23;20025;-70
2024/03/28 10:49:54;;;;;;;2.42;1.30;;;;;;;;;;6181604;23;20074;-69
2024/03/28 10:52:36;;;;;;;1.60;1.50;;;;;;;;;;6176394;23;20016;-69
2024/03/28 10:55:04;;;;;;;1.67;1.50;;;;;;;;;;6177775;23;20367;-70
2024/03/28 10:57:29;;;;;;;1.27;1.17;;;;;;;;;;6181469;23;20646;-70
2024/03/28 10:59:55;;;;;;;3.17;1.33;;;;;;;;;;6173929;23;20060;-69
2024/03/28 11:02:22;;;;;;;1.52;1.40;;;;;;;;;;6181720;23;20358;-70
2024/03/28 11:04:48;;;;;;;1.92;1.45;;;;;;;;;;6172926;23;20025;-71
2024/03/28 11:07:15;;;;;;;3.72;1.50;;;;;;;;;;6175283;23;20052;-70
2024/03/28 11:09:41;;;;;;;1.83;1.55;;;;;;;;;;6181119;23;20025;-70
2024/03/28 11:12:08;;;;;;;2.22;1.35;;;;;;;;;;6175178;23;20087;-71
2024/03/28 11:14:33;;;;;;;1.60;1.50;;;;;;;;;;6181556;23;20025;-71
2024/03/28 11:17:05;;;;;;;1.77;1.50;;;;;;;;;;6172592;23;20028;-71
2024/03/28 11:19:31;;;;;;;1.70;1.55;;;;;;;;;;6177817;23;20052;-71
2024/03/28 11:21:57;;;;;;;4.18;1.85;;;;;;;;;;6170547;23;21168;-70
2024/03/28 11:24:28;;;;;;;2.13;1.80;;;;;;;;;;6181012;23;20031;-70
2024/03/28 11:26:54;;;;;;;3.05;1.90;;;;;;;;;;6181751;23;20017;-70
2024/03/28 11:29:23;;;;;;;4.20;2.40;;;;;;;;;;6175890;23;20520;-70
2024/03/28 11:31:57;;;;;;;4.25;2.20;;;;;;;;;;6180821;23;20096;-70
2024/03/28 11:34:29;;;;;;;5.53;2.58;;;;;;;;;;6145840;23;20024;-70
2024/03/28 11:36:55;;;;;;;5.60;2.50;;;;;;;;;;6176041;23;20020;-69
2024/03/28 11:39:21;;;;;;;3.13;2.58;;;;;;;;;;6173295;23;20486;-71
2024/03/28 11:41:46;;;;;;;4.53;2.60;;;;;;;;;;6181163;23;20103;-70
2024/03/28 11:44:17;;;;;;;6.60;2.80;;;;;;;;;;6180640;23;20020;-70
2024/03/28 11:46:42;;;;;;;3.90;3.25;;;;;;;;;;6174440;23;20020;-70
2024/03/28 11:49:08;;;;;;;5.20;2.63;;;;;;;;;;6176608;23;20021;-71
2024/03/28 11:51:33;;;;;;;6.50;3.00;;;;;;;;;;6172302;23;20520;-70
2024/03/28 11:54:01;;;;;;;4.45;2.90;;;;;;;;;;6180732;23;20021;-71
2024/03/28 11:56:27;;;;;;;9.32;3.58;;;;;;;;;;6181452;23;20028;-71
2024/03/28 11:58:53;;;;;;;6.50;3.28;;;;;;;;;;6171270;23;20020;-71
2024/03/28 12:01:19;;;;;;;8.50;3.38;;;;;;;;;;6179780;23;20027;-72
2024/03/28 12:03:45;;;;;;;8.20;4.20;;;;;;;;;;6167632;23;20021;-71
2024/03/28 12:06:11;;;;;;;7.20;4.05;;;;;;;;;;6155193;23;20017;-69
2024/03/28 12:08:38;;;;;;;9.45;4.43;;;;;;;;;;6173441;23;20025;-71
2024/03/28 12:11:05;;;;;;;8.40;3.97;;;;;;;;;;6180783;23;20420;-70
2024/03/28 12:13:31;;;;;;;7.45;3.85;;;;;;;;;;6181088;23;20017;-70
2024/03/28 12:15:57;;;;;;;4.60;3.47;;;;;;;;;;6171276;23;20021;-71
2024/03/28 12:18:22;;;;;;;5.80;3.80;;;;;;;;;;6175710;23;20759;-71
2024/03/28 12:20:48;;;;;;;9.07;4.70;;;;;;;;;;6172800;23;20464;-71
2024/03/28 12:23:13;;;;;;;6.32;4.03;;;;;;;;;;6156451;23;20024;-71
2024/03/28 12:25:45;;;;;;;8.32;4.15;;;;;;;;;;6180840;23;20020;-71
2024/03/28 12:28:16;;;;;;;7.57;4.30;;;;;;;;;;6173769;23;20017;-70
2024/03/28 12:30:47;;;;;;;11.88;4.03;;;;;;;;;;6176711;23;20020;-71
2024/03/28 12:33:13;;;;;;;7.57;4.10;;;;;;;;;;6169862;23;20025;-69
2024/03/28 12:35:38;;;;;;;7.93;4.40;;;;;;;;;;6179463;23;20090;-70
2024/03/28 12:38:04;;;;;;;5.30;3.58;;;;;;;;;;6175010;23;20393;-74
2024/03/28 12:40:32;;;;;;;8.40;3.45;;;;;;;;;;6182149;23;20021;-76
2024/03/28 12:42:58;;;;;;;6.00;3.20;;;;;;;;;;6179908;23;20407;-73
2024/03/28 12:45:28;;;;;;;6.82;3.33;;;;;;;;;;6169676;23;20317;-73
2024/03/28 12:47:53;;;;;;;6.50;3.15;;;;;;;;;;6176494;23;20502;-74
2024/03/28 12:50:20;;;;;;;5.20;2.58;;;;;;;;;;6174210;23;20055;-79
2024/03/28 12:52:52;;;;;;;5.78;2.40;;;;;;;;;;6181582;23;20024;-78
2024/03/28 12:55:21;;;;;;;5.72;2.63;;;;;;;;;;6176711;23;20021;-78
2024/03/28 12:57:47;;;;;;;5.13;2.38;;;;;;;;;;6181423;23;20020;-78
2024/03/28 13:00:13;;;;;;;6.68;2.20;;;;;;;;;;6177896;23;20025;-77
2024/03/28 13:02:39;;;;;;;3.85;2.30;;;;;;;;;;6146475;23;20082;-78
2024/03/28 13:05:05;;;;;;;3.00;1.20;;;;;;;;;;6182166;23;20025;-78
2024/03/28 13:07:31;;;;;;;1.48;0.90;;;;;;;;;;6175220;23;20024;-75
2024/03/28 13:09:57;;;;;;;3.75;0.80;;;;;;;;;;6157299;23;20017;-76
2024/03/28 13:12:25;;;;;;;3.20;1.08;;;;;;;;;;6178988;23;20352;-75
2024/03/28 13:14:51;;;;;;;2.08;1.00;;;;;;;;;;6171344;23;20031;-76
2024/03/28 13:17:16;;;;;;;2.50;1.10;;;;;;;;;;6177490;23;20020;-76
2024/03/28 13:19:42;;;;;;;2.33;1.05;;;;;;;;;;6175153;23;20082;-76
2024/03/28 13:22:07;;;;;;;1.77;1.00;;;;;;;;;;6157000;23;20099;-76
2024/03/28 13:24:33;;;;;;;3.22;1.00;;;;;;;;;;6174832;23;20047;-77
2024/03/28 13:26:58;;;;;;;2.03;0.93;;;;;;;;;;6156235;23;20340;-76
2024/03/28 13:29:24;;;;;;;1.83;0.98;;;;;;;;;;6175613;23;20020;-75
2024/03/28 13:31:49;;;;;;;4.90;1.00;;;;;;;;;;6170700;23;20020;-76
2024/03/28 13:34:14;;;;;;;1.90;0.88;;;;;;;;;;6180942;23;20027;-76
2024/03/28 13:36:40;;;;;;;1.90;0.70;;;;;;;;;;6174091;23;20074;-77
2024/03/28 13:39:05;;;;;;;3.20;1.30;;;;;;;;;;6181565;23;20016;-75
2024/03/28 13:41:31;;;;;;;1.80;0.65;;;;;;;;;;6178701;23;20143;-75
2024/03/28 13:43:56;;;;;;;2.20;0.60;;;;;;;;;;6168912;23;20020;-74
2024/03/28 13:46:22;;;;;;;1.63;0.55;;;;;;;;;;6178914;23;20075;-74
2024/03/28 13:48:47;;;;;;;1.65;0.98;;;;;;;;;;6173950;23;20028;-74
2024/03/28 13:51:12;;;;;;;3.58;0.70;;;;;;;;;;6181018;23;20027;-75
2024/03/28 13:53:38;;;;;;;1.92;0.70;;;;;;;;;;6173672;23;20024;-75
2024/03/28 13:56:04;;;;;;;0.93;0.50;;;;;;;;;;6154782;23;20363;-75
2024/03/28 13:58:29;;;;;;;0.90;0.45;;;;;;;;;;6150090;23;20078;-76
2024/03/28 14:00:54;;;;;;;4.30;1.70;;;;;;;;;;6149964;23;20083;-75
2024/03/28 14:03:20;;;;;;;1.42;0.70;;;;;;;;;;6157823;23;20074;-75
2024/03/28 14:05:45;;;;;;;2.45;0.70;;;;;;;;;;6174709;23;20020;-76
2024/03/28 14:08:11;;;;;;;1.27;0.80;;;;;;;;;;6182338;23;20016;-75
2024/03/28 14:10:40;;;;;;;2.20;0.60;;;;;;;;;;6180615;23;20024;-76
2024/03/28 14:13:05;;;;;;;1.10;0.60;;;;;;;;;;6174749;23;20040;-75
2024/03/28 14:15:32;;;;;;;1.20;0.50;;;;;;;;;;6182404;23;20031;-76
2024/03/28 14:17:57;;;;;;;2.90;0.50;;;;;;;;;;6150150;23;20052;-76
2024/03/28 14:20:22;;;;;;;3.40;1.42;;;;;;;;;;6181842;23;20020;-75
2024/03/28 14:22:49;;;;;;;1.27;0.70;;;;;;;;;;6145801;23;20127;-76
2024/03/28 14:25:15;;;;;;;3.97;0.50;;;;;;;;;;6153187;23;20021;-75
2024/03/28 14:27:40;;;;;;;2.40;0.70;;;;;;;;;;6156603;23;20481;-75
2024/03/28 14:30:06;;;;;;;5.60;0.68;;;;;;;;;;6175129;23;20068;-75
2024/03/28 14:32:31;;;;;;;0.47;0.47;;;;;;;;;;6181087;23;20020;-75
2024/03/28 14:34:57;;;;;;;0.63;0.52;;;;;;;;;;6148789;23;20027;-76
2024/03/28 14:37:22;;;;;;;0.90;0.40;;;;;;;;;;6175601;23;20118;-75
2024/03/28 14:39:48;;;;;;;1.15;0.52;;;;;;;;;;6178094;23;20024;-75
2024/03/28 14:42:13;;;;;;;1.15;0.52;;;;;;;;;;6173618;23;20050;-76
2024/03/28 14:44:39;;;;;;;1.70;0.68;;;;;;;;;;6180539;23;20024;-75